Terminal Aerodrome Forecast
Issued by NWS Duluth, MN

Home | Current Version | Previous Version | Text Only | Print | Product List | Glossary Off
Versions: 1 2 3 4 5 6 7 8 9 10 11 12 13 14 15 16 17 18 19 20 21 22 23 24 25 26 27 28

000
FTUS43 KDLH 150538
TAFDLH
TAF
KDLH 150538Z 1506/1606 31009KT P6SM -SHSN BKN045
      TEMPO 1506/1509 4SM -SN BR BKN025
     FM151000 31007KT P6SM VCSH BKN025
     FM151200 32007KT P6SM OVC015
     FM151700 32007KT P6SM BKN040
     FM152200 03004KT P6SM VCSH BKN022
     FM160300 VRB03KT 4SM -SN BKN022=

USA.gov is the U.S. government's official web portal to all federal, state and local government web resources and services.